sensor_id;sensor_type;location;lat;lon;timestamp;pressure;altitude;pressure_sealevel;temperature;humidity
57668;BME280;43499;52.366;12.912;2023-03-04T00:00:08;101530.69;;;-0.45;100.00
57668;BME280;43499;52.366;12.912;2023-03-04T00:01:34;101587.28;;;-0.15;100.00
57668;BME280;43499;52.366;12.912;2023-03-04T00:02:59;101549.84;;;-0.37;100.00
57668;BME280;43499;52.366;12.912;2023-03-04T00:04:33;101511.84;;;-0.57;100.00
57668;BME280;43499;52.366;12.912;2023-03-04T00:06:23;101582.81;;;-0.16;100.00
57668;BME280;43499;52.366;12.912;2023-03-04T00:07:26;101615.53;;;-0.04;100.00
57668;BME280;43499;52.366;12.912;2023-03-04T00:09:02;101506.75;;;-0.63;100.00
57668;BME280;43499;52.366;12.912;2023-03-04T00:10:11;101555.63;;;-0.33;100.00
57668;BME280;43499;52.366;12.912;2023-03-04T00:11:41;101569.59;;;-0.25;100.00
57668;BME280;43499;52.366;12.912;2023-03-04T00:13:08;101539.50;;;-0.37;100.00
57668;BME280;43499;52.366;12.912;2023-03-04T00:16:06;101553.75;;;-0.34;100.00
57668;BME280;43499;52.366;12.912;2023-03-04T00:17:07;101560.28;;;-0.30;100.00
57668;BME280;43499;52.366;12.912;2023-03-04T00:18:18;101540.66;;;-0.35;100.00
57668;BME280;43499;52.366;12.912;2023-03-04T00:19:23;101599.94;;;0.02;100.00
57668;BME280;43499;52.366;12.912;2023-03-04T00:20:46;101525.16;;;-0.35;100.00
57668;BME280;43499;52.366;12.912;2023-03-04T00:22:05;101532.19;;;-0.21;100.00
57668;BME280;43499;52.366;12.912;2023-03-04T00:23:09;101555.69;;;-0.07;100.00
57668;BME280;43499;52.366;12.912;2023-03-04T00:24:37;101561.88;;;0.01;100.00
57668;BME280;43499;52.366;12.912;2023-03-04T00:26:32;101543.78;;;0.01;100.00
57668;BME280;43499;52.366;12.912;2023-03-04T00:28:06;101532.53;;;0.01;100.00
57668;BME280;43499;52.366;12.912;2023-03-04T00:33:08;101511.13;;;0.02;100.00
57668;BME280;43499;52.366;12.912;2023-03-04T00:34:33;101526.53;;;0.20;100.00
57668;BME280;43499;52.366;12.912;2023-03-04T00:35:45;101580.19;;;0.54;100.00
57668;BME280;43499;52.366;12.912;2023-03-04T00:36:49;101517.72;;;0.12;100.00
57668;BME280;43499;52.366;12.912;2023-03-04T00:38:19;101522.19;;;0.26;100.00
57668;BME280;43499;52.366;12.912;2023-03-04T00:39:33;101541.53;;;0.36;100.00
57668;BME280;43499;52.366;12.912;2023-03-04T00:40:49;101564.69;;;0.54;100.00
57668;BME280;43499;52.366;12.912;2023-03-04T00:42:01;101545.78;;;0.48;100.00
57668;BME280;43499;52.366;12.912;2023-03-04T00:43:34;101548.03;;;0.52;100.00
57668;BME280;43499;52.366;12.912;2023-03-04T00:45:00;101578.72;;;0.69;100.00
57668;BME280;43499;52.366;12.912;2023-03-04T00:46:15;101608.44;;;0.91;100.00
57668;BME280;43499;52.366;12.912;2023-03-04T00:47:41;101596.63;;;0.94;100.00
57668;BME280;43499;52.366;12.912;2023-03-04T00:48:53;101518.72;;;0.59;100.00
57668;BME280;43499;52.366;12.912;2023-03-04T00:50:20;101486.91;;;0.40;100.00
57668;BME280;43499;52.366;12.912;2023-03-04T00:51:27;101561.75;;;0.84;100.00
57668;BME280;43499;52.366;12.912;2023-03-04T00:52:29;101505.09;;;0.47;100.00
57668;BME280;43499;52.366;12.912;2023-03-04T00:54:23;101504.28;;;0.54;100.00
57668;BME280;43499;52.366;12.912;2023-03-04T00:57:22;101563.50;;;0.91;100.00
57668;BME280;43499;52.366;12.912;2023-03-04T00:58:26;101591.03;;;1.03;100.00
57668;BME280;43499;52.366;12.912;2023-03-04T00:59:35;101505.47;;;0.63;100.00
57668;BME280;43499;52.366;12.912;2023-03-04T01:00:42;101473.13;;;0.46;100.00
57668;BME280;43499;52.366;12.912;2023-03-04T01:03:50;101518.59;;;0.77;100.00
57668;BME280;43499;52.366;12.912;2023-03-04T01:05:11;101496.69;;;0.68;100.00
57668;BME280;43499;52.366;12.912;2023-03-04T01:06:22;101495.03;;;0.69;100.00
57668;BME280;43499;52.366;12.912;2023-03-04T01:07:59;101570.06;;;1.15;100.00
57668;BME280;43499;52.366;12.912;2023-03-04T01:09:29;101491.91;;;0.71;100.00
57668;BME280;43499;52.366;12.912;2023-03-04T01:11:16;101513.69;;;0.86;100.00
57668;BME280;43499;52.366;12.912;2023-03-04T01:12:28;101508.50;;;0.86;100.00
57668;BME280;43499;52.366;12.912;2023-03-04T01:13:46;101465.34;;;0.59;100.00
57668;BME280;43499;52.366;12.912;2023-03-04T01:15:00;101576.59;;;1.18;100.00
57668;BME280;43499;52.366;12.912;2023-03-04T01:16:13;101515.66;;;0.95;100.00
57668;BME280;43499;52.366;12.912;2023-03-04T01:17:19;101460.38;;;0.61;100.00
57668;BME280;43499;52.366;12.912;2023-03-04T01:19:06;101524.56;;;0.97;100.00
57668;BME280;43499;52.366;12.912;2023-03-04T01:20:18;101498.63;;;0.76;100.00
57668;BME280;43499;52.366;12.912;2023-03-04T01:21:37;101494.19;;;0.75;100.00
57668;BME280;43499;52.366;12.912;2023-03-04T01:22:38;101566.59;;;1.21;100.00
57668;BME280;43499;52.366;12.912;2023-03-04T01:23:40;101509.75;;;0.96;100.00
57668;BME280;43499;52.366;12.912;2023-03-04T01:24:54;101501.88;;;0.88;100.00
57668;BME280;43499;52.366;12.912;2023-03-04T01:26:16;101546.88;;;1.09;100.00
57668;BME280;43499;52.366;12.912;2023-03-04T01:29:18;101482.84;;;0.88;100.00
57668;BME280;43499;52.366;12.912;2023-03-04T01:30:49;101523.19;;;1.06;100.00
57668;BME280;43499;52.366;12.912;2023-03-04T01:32:16;101454.94;;;0.72;100.00
57668;BME280;43499;52.366;12.912;2023-03-04T01:33:17;101487.22;;;0.82;100.00
57668;BME280;43499;52.366;12.912;2023-03-04T01:34:35;101500.91;;;1.01;100.00
57668;BME280;43499;52.366;12.912;2023-03-04T01:36:22;101488.31;;;0.97;100.00
57668;BME280;43499;52.366;12.912;2023-03-04T01:37:27;101491.50;;;1.01;100.00
57668;BME280;43499;52.366;12.912;2023-03-04T01:39:29;101493.75;;;1.05;100.00
57668;BME280;43499;52.366;12.912;2023-03-04T01:41:40;101544.41;;;1.36;100.00
57668;BME280;43499;52.366;12.912;2023-03-04T01:42:44;101556.63;;;1.37;100.00
57668;BME280;43499;52.366;12.912;2023-03-04T01:43:56;101451.97;;;0.89;100.00
57668;BME280;43499;52.366;12.912;2023-03-04T01:45:24;101491.38;;;1.07;100.00
57668;BME280;43499;52.366;12.912;2023-03-04T01:46:34;101468.34;;;0.96;100.00
57668;BME280;43499;52.366;12.912;2023-03-04T01:48:22;101440.00;;;0.90;100.00
57668;BME280;43499;52.366;12.912;2023-03-04T01:49:33;101484.81;;;1.16;100.00
57668;BME280;43499;52.366;12.912;2023-03-04T01:51:17;101485.41;;;1.21;100.00
57668;BME280;43499;52.366;12.912;2023-03-04T01:52:26;101528.19;;;1.45;100.00
57668;BME280;43499;52.366;12.912;2023-03-04T01:53:51;101472.41;;;1.14;100.00
57668;BME280;43499;52.366;12.912;2023-03-04T01:54:57;101472.13;;;1.25;100.00
57668;BME280;43499;52.366;12.912;2023-03-04T01:56:36;101518.09;;;1.53;100.00
57668;BME280;43499;52.366;12.912;2023-03-04T01:58:05;101453.41;;;1.20;100.00
57668;BME280;43499;52.366;12.912;2023-03-04T01:59:22;101477.78;;;1.35;100.00
57668;BME280;43499;52.366;12.912;2023-03-04T02:00:53;101465.34;;;1.33;100.00
57668;BME280;43499;52.366;12.912;2023-03-04T02:01:59;101414.63;;;1.07;100.00
57668;BME280;43499;52.366;12.912;2023-03-04T02:03:11;101419.47;;;1.12;100.00
57668;BME280;43499;52.366;12.912;2023-03-04T02:04:17;101494.97;;;1.55;100.00
57668;BME280;43499;52.366;12.912;2023-03-04T02:05:19;101469.50;;;1.45;100.00
57668;BME280;43499;52.366;12.912;2023-03-04T02:06:20;101475.81;;;1.47;100.00
57668;BME280;43499;52.366;12.912;2023-03-04T02:07:23;101488.50;;;1.59;100.00
57668;BME280;43499;52.366;12.912;2023-03-04T02:08:27;101445.16;;;1.30;100.00
57668;BME280;43499;52.366;12.912;2023-03-04T02:09:37;101459.16;;;1.45;100.00
57668;BME280;43499;52.366;12.912;2023-03-04T02:10:47;101438.19;;;1.36;100.00
57668;BME280;43499;52.366;12.912;2023-03-04T02:11:52;101489.09;;;1.63;100.00
57668;BME280;43499;52.366;12.912;2023-03-04T02:13:11;101405.00;;;1.27;100.00
57668;BME280;43499;52.366;12.912;2023-03-04T02:14:20;101471.81;;;1.57;100.00
57668;BME280;43499;52.366;12.912;2023-03-04T02:15:28;101424.50;;;1.37;100.00
57668;BME280;43499;52.366;12.912;2023-03-04T02:16:35;101455.38;;;1.56;100.00
57668;BME280;43499;52.366;12.912;2023-03-04T02:17:39;101412.63;;;1.32;100.00
57668;BME280;43499;52.366;12.912;2023-03-04T02:18:49;101413.94;;;1.36;100.00
57668;BME280;43499;52.366;12.912;2023-03-04T02:20:22;101490.00;;;1.84;100.00
57668;BME280;43499;52.366;12.912;2023-03-04T02:21:48;101455.94;;;1.61;100.00
57668;BME280;43499;52.366;12.912;2023-03-04T02:24:40;101492.78;;;1.85;100.00
57668;BME280;43499;52.366;12.912;2023-03-04T02:26:02;101420.28;;;1.45;100.00
57668;BME280;43499;52.366;12.912;2023-03-04T02:27:23;101455.06;;;1.67;100.00
57668;BME280;43499;52.366;12.912;2023-03-04T02:32:57;101360.81;;;1.32;100.00
57668;BME280;43499;52.366;12.912;2023-03-04T02:34:27;101417.84;;;1.67;100.00
57668;BME280;43499;52.366;12.912;2023-03-04T02:35:56;101447.25;;;1.88;100.00
57668;BME280;43499;52.366;12.912;2023-03-04T02:37:11;101471.19;;;1.99;100.00
57668;BME280;43499;52.366;12.912;2023-03-04T02:38:43;101371.66;;;1.50;100.00
57668;BME280;43499;52.366;12.912;2023-03-04T02:40:16;101416.97;;;1.74;100.00
57668;BME280;43499;52.366;12.912;2023-03-04T02:41:47;101424.44;;;1.85;100.00
57668;BME280;43499;52.366;12.912;2023-03-04T02:43:45;101401.97;;;1.71;100.00
57668;BME280;43499;52.366;12.912;2023-03-04T02:45:01;101373.56;;;1.58;100.00
57668;BME280;43499;52.366;12.912;2023-03-04T02:46:05;101404.47;;;1.84;100.00
57668;BME280;43499;52.366;12.912;2023-03-04T02:47:25;101391.78;;;1.73;100.00
57668;BME280;43499;52.366;12.912;2023-03-04T02:49:46;101385.50;;;1.71;100.00
57668;BME280;43499;52.366;12.912;2023-03-04T02:51:29;101361.94;;;1.62;100.00
57668;BME280;43499;52.366;12.912;2023-03-04T02:52:42;101381.06;;;1.77;100.00
57668;BME280;43499;52.366;12.912;2023-03-04T02:54:15;101446.28;;;2.14;100.00
57668;BME280;43499;52.366;12.912;2023-03-04T02:55:22;101410.25;;;1.96;100.00
57668;BME280;43499;52.366;12.912;2023-03-04T02:57:04;101352.13;;;1.59;100.00
57668;BME280;43499;52.366;12.912;2023-03-04T02:58:40;101396.31;;;1.88;100.00
57668;BME280;43499;52.366;12.912;2023-03-04T03:00:14;101410.25;;;1.96;100.00
57668;BME280;43499;52.366;12.912;2023-03-04T03:01:27;101447.63;;;2.18;100.00
57668;BME280;43499;52.366;12.912;2023-03-04T03:02:52;101374.81;;;1.82;100.00
57668;BME280;43499;52.366;12.912;2023-03-04T03:04:17;101332.47;;;1.61;100.00
57668;BME280;43499;52.366;12.912;2023-03-04T03:06:04;101441.31;;;2.23;100.00
57668;BME280;43499;52.366;12.912;2023-03-04T03:07:12;101354.44;;;1.78;100.00
57668;BME280;43499;52.366;12.912;2023-03-04T03:08:15;101337.16;;;1.64;100.00
57668;BME280;43499;52.366;12.912;2023-03-04T03:09:31;101372.03;;;1.80;100.00
57668;BME280;43499;52.366;12.912;2023-03-04T03:10:44;101363.00;;;1.84;100.00
57668;BME280;43499;52.366;12.912;2023-03-04T03:12:24;101358.16;;;1.80;100.00
57668;BME280;43499;52.366;12.912;2023-03-04T03:15:50;101400.88;;;2.11;100.00
57668;BME280;43499;52.366;12.912;2023-03-04T03:17:03;101388.81;;;2.04;100.00
57668;BME280;43499;52.366;12.912;2023-03-04T03:18:32;101337.41;;;1.80;100.00
57668;BME280;43499;52.366;12.912;2023-03-04T03:19:54;101383.25;;;2.01;100.00
57668;BME280;43499;52.366;12.912;2023-03-04T03:20:59;101332.78;;;1.77;100.00
57668;BME280;43499;52.366;12.912;2023-03-04T03:22:04;101402.41;;;2.16;100.00
57668;BME280;43499;52.366;12.912;2023-03-04T03:23:28;101442.13;;;2.37;100.00
57668;BME280;43499;52.366;12.912;2023-03-04T03:25:06;101440.66;;;2.39;100.00
57668;BME280;43499;52.366;12.912;2023-03-04T03:26:29;101419.09;;;2.25;100.00
57668;BME280;43499;52.366;12.912;2023-03-04T03:27:50;101377.91;;;2.07;100.00
57668;BME280;43499;52.366;12.912;2023-03-04T03:28:58;101334.31;;;1.90;100.00
57668;BME280;43499;52.366;12.912;2023-03-04T03:30:23;101395.75;;;2.18;100.00
57668;BME280;43499;52.366;12.912;2023-03-04T03:31:35;101359.72;;;1.99;100.00
57668;BME280;43499;52.366;12.912;2023-03-04T03:32:50;101338.56;;;1.96;100.00
57668;BME280;43499;52.366;12.912;2023-03-04T03:34:31;101448.06;;;2.43;100.00
57668;BME280;43499;52.366;12.912;2023-03-04T03:35:44;101365.69;;;2.06;100.00
57668;BME280;43499;52.366;12.912;2023-03-04T03:36:59;101383.69;;;2.19;100.00
57668;BME280;43499;52.366;12.912;2023-03-04T03:38:05;101417.31;;;2.39;100.00
57668;BME280;43499;52.366;12.912;2023-03-04T03:40:50;101332.63;;;1.90;100.00
57668;BME280;43499;52.366;12.912;2023-03-04T03:42:02;101441.25;;;2.51;100.00
57668;BME280;43499;52.366;12.912;2023-03-04T03:45:07;101394.66;;;2.30;100.00
57668;BME280;43499;52.366;12.912;2023-03-04T03:46:27;101436.06;;;2.51;100.00
57668;BME280;43499;52.366;12.912;2023-03-04T03:48:57;101399.31;;;2.40;100.00
57668;BME280;43499;52.366;12.912;2023-03-04T03:50:17;101383.53;;;2.24;100.00
57668;BME280;43499;52.366;12.912;2023-03-04T03:51:51;101364.78;;;2.12;100.00
57668;BME280;43499;52.366;12.912;2023-03-04T03:53:32;101371.06;;;2.14;100.00
57668;BME280;43499;52.366;12.912;2023-03-04T03:54:53;101416.41;;;2.45;100.00
57668;BME280;43499;52.366;12.912;2023-03-04T03:56:38;101324.53;;;1.94;100.00
57668;BME280;43499;52.366;12.912;2023-03-04T03:57:51;101317.41;;;1.86;100.00
57668;BME280;43499;52.366;12.912;2023-03-04T03:58:58;101378.50;;;2.19;100.00
57668;BME280;43499;52.366;12.912;2023-03-04T04:00:34;101333.03;;;2.00;100.00
57668;BME280;43499;52.366;12.912;2023-03-04T04:01:47;101301.50;;;1.83;100.00
57668;BME280;43499;52.366;12.912;2023-03-04T04:03:35;101402.09;;;2.42;100.00
57668;BME280;43499;52.366;12.912;2023-03-04T04:05:19;101340.47;;;2.05;100.00
57668;BME280;43499;52.366;12.912;2023-03-04T04:06:24;101353.81;;;2.08;100.00
57668;BME280;43499;52.366;12.912;2023-03-04T04:07:26;101340.47;;;2.05;100.00
57668;BME280;43499;52.366;12.912;2023-03-04T04:08:35;101380.75;;;2.30;100.00
57668;BME280;43499;52.366;12.912;2023-03-04T04:09:39;101369.81;;;2.18;100.00
57668;BME280;43499;52.366;12.912;2023-03-04T04:10:49;101340.84;;;2.08;100.00
57668;BME280;43499;52.366;12.912;2023-03-04T04:11:55;101369.03;;;2.19;100.00
57668;BME280;43499;52.366;12.912;2023-03-04T04:13:20;101367.72;;;2.15;100.00
57668;BME280;43499;52.366;12.912;2023-03-04T04:14:45;101325.81;;;1.98;100.00
57668;BME280;43499;52.366;12.912;2023-03-04T04:15:50;101322.50;;;1.99;100.00
57668;BME280;43499;52.366;12.912;2023-03-04T04:19:02;101381.50;;;2.29;100.00
57668;BME280;43499;52.366;12.912;2023-03-04T04:20:25;101363.66;;;2.18;100.00
57668;BME280;43499;52.366;12.912;2023-03-04T04:21:41;101358.47;;;2.18;100.00
57668;BME280;43499;52.366;12.912;2023-03-04T04:23:15;101398.59;;;2.41;100.00
57668;BME280;43499;52.366;12.912;2023-03-04T04:24:28;101407.28;;;2.42;100.00
57668;BME280;43499;52.366;12.912;2023-03-04T04:25:48;101332.69;;;2.05;100.00
57668;BME280;43499;52.366;12.912;2023-03-04T04:26:52;101330.84;;;2.04;100.00
57668;BME280;43499;52.366;12.912;2023-03-04T04:28:25;101296.13;;;1.81;100.00
57668;BME280;43499;52.366;12.912;2023-03-04T04:29:51;101342.34;;;2.13;100.00
57668;BME280;43499;52.366;12.912;2023-03-04T04:30:56;101322.84;;;2.02;100.00
57668;BME280;43499;52.366;12.912;2023-03-04T04:32:24;101345.88;;;2.13;100.00
57668;BME280;43499;52.366;12.912;2023-03-04T04:33:35;101328.44;;;2.05;100.00
57668;BME280;43499;52.366;12.912;2023-03-04T04:34:49;101295.59;;;1.84;100.00
57668;BME280;43499;52.366;12.912;2023-03-04T04:36:26;101391.38;;;2.46;100.00
57668;BME280;43499;52.366;12.912;2023-03-04T04:37:48;101338.47;;;2.16;100.00
57668;BME280;43499;52.366;12.912;2023-03-04T04:39:02;101322.69;;;2.08;100.00
57668;BME280;43499;52.366;12.912;2023-03-04T04:40:15;101346.25;;;2.16;100.00
57668;BME280;43499;52.366;12.912;2023-03-04T04:41:50;101338.84;;;2.20;100.00
57668;BME280;43499;52.366;12.912;2023-03-04T04:43:09;101290.44;;;1.91;100.00
57668;BME280;43499;52.366;12.912;2023-03-04T04:46:32;101319.94;;;2.13;100.00
57668;BME280;43499;52.366;12.912;2023-03-04T04:47:34;101342.19;;;2.19;100.00
57668;BME280;43499;52.366;12.912;2023-03-04T04:48:37;101289.88;;;1.94;100.00
57668;BME280;43499;52.366;12.912;2023-03-04T04:49:46;101297.13;;;2.04;100.00
57668;BME280;43499;52.366;12.912;2023-03-04T04:51:02;101270.25;;;1.89;100.00
57668;BME280;43499;52.366;12.912;2023-03-04T04:52:36;101339.81;;;2.27;100.00
57668;BME280;43499;52.366;12.912;2023-03-04T04:54:03;101308.66;;;2.13;100.00
57668;BME280;43499;52.366;12.912;2023-03-04T04:55:55;101279.72;;;1.95;100.00
57668;BME280;43499;52.366;12.912;2023-03-04T04:57:00;101320.16;;;2.22;100.00
57668;BME280;43499;52.366;12.912;2023-03-04T04:58:07;101319.97;;;2.21;100.00
57668;BME280;43499;52.366;12.912;2023-03-04T04:59:24;101294.38;;;2.09;100.00
57668;BME280;43499;52.366;12.912;2023-03-04T05:01:09;101293.25;;;2.07;100.00
57668;BME280;43499;52.366;12.912;2023-03-04T05:02:43;101354.66;;;2.43;100.00
57668;BME280;43499;52.366;12.912;2023-03-04T05:03:56;101347.44;;;2.40;100.00
57668;BME280;43499;52.366;12.912;2023-03-04T05:05:06;101317.38;;;2.21;100.00
57668;BME280;43499;52.366;12.912;2023-03-04T05:06:22;101276.00;;;2.08;100.00
57668;BME280;43499;52.366;12.912;2023-03-04T05:07:41;101291.41;;;2.13;100.00
57668;BME280;43499;52.366;12.912;2023-03-04T05:08:53;101286.97;;;2.12;100.00
57668;BME280;43499;52.366;12.912;2023-03-04T05:10:18;101287.34;;;2.15;100.00
57668;BME280;43499;52.366;12.912;2023-03-04T05:11:21;101372.13;;;2.58;100.00
57668;BME280;43499;52.366;12.912;2023-03-04T05:12:43;101292.53;;;2.15;100.00
57668;BME280;43499;52.366;12.912;2023-03-04T05:14:27;101381.22;;;2.62;100.00
57668;BME280;43499;52.366;12.912;2023-03-04T05:15:37;101385.50;;;2.61;100.00
57668;BME280;43499;52.366;12.912;2023-03-04T05:17:15;101366.38;;;2.61;100.00
57668;BME280;43499;52.366;12.912;2023-03-04T05:18:53;101354.31;;;2.47;100.00
57668;BME280;43499;52.366;12.912;2023-03-04T05:20:07;101274.38;;;2.08;100.00
57668;BME280;43499;52.366;12.912;2023-03-04T05:21:32;101298.66;;;2.23;100.00
57668;BME280;43499;52.366;12.912;2023-03-04T05:22:54;101329.09;;;2.39;100.00
57668;BME280;43499;52.366;12.912;2023-03-04T05:24:12;101326.13;;;2.43;100.00
57668;BME280;43499;52.366;12.912;2023-03-04T05:26:08;101319.81;;;2.34;100.00
57668;BME280;43499;52.366;12.912;2023-03-04T05:27:44;101283.09;;;2.16;100.00
57668;BME280;43499;52.366;12.912;2023-03-04T05:30:08;101293.31;;;2.29;100.00
57668;BME280;43499;52.366;12.912;2023-03-04T05:31:32;101309.06;;;2.38;100.00
57668;BME280;43499;52.366;12.912;2023-03-04T05:32:34;101348.22;;;2.61;100.00
57668;BME280;43499;52.366;12.912;2023-03-04T05:33:48;101278.66;;;2.22;100.00
57668;BME280;43499;52.366;12.912;2023-03-04T05:35:11;101321.31;;;2.46;100.00
57668;BME280;43499;52.366;12.912;2023-03-04T05:36:27;101370.88;;;2.69;100.00
57668;BME280;43499;52.366;12.912;2023-03-04T05:37:39;101332.25;;;2.51;100.00
57668;BME280;43499;52.366;12.912;2023-03-04T05:39:16;101367.88;;;2.73;100.00
57668;BME280;43499;52.366;12.912;2023-03-04T05:41:06;101312.41;;;2.44;100.00
57668;BME280;43499;52.366;12.912;2023-03-04T05:42:19;101335.22;;;2.54;100.00
57668;BME280;43499;52.366;12.912;2023-03-04T05:43:29;101328.00;;;2.58;100.00
57668;BME280;43499;52.366;12.912;2023-03-04T05:44:30;101316.13;;;2.46;100.00
57668;BME280;43499;52.366;12.912;2023-03-04T05:45:41;101342.66;;;2.58;100.00
57668;BME280;43499;52.366;12.912;2023-03-04T05:46:42;101316.88;;;2.45;100.00
57668;BME280;43499;52.366;12.912;2023-03-04T05:47:46;101358.06;;;2.71;100.00
57668;BME280;43499;52.366;12.912;2023-03-04T05:49:19;101333.75;;;2.56;100.00
57668;BME280;43499;52.366;12.912;2023-03-04T05:50:57;101307.78;;;2.34;100.00
57668;BME280;43499;52.366;12.912;2023-03-04T05:52:39;101295.72;;;2.35;100.00
57668;BME280;43499;52.366;12.912;2023-03-04T05:53:48;101329.47;;;2.56;100.00
57668;BME280;43499;52.366;12.912;2023-03-04T05:54:49;101303.16;;;2.46;100.00
57668;BME280;43499;52.366;12.912;2023-03-04T05:55:51;101364.19;;;2.78;100.00
57668;BME280;43499;52.366;12.912;2023-03-04T05:57:21;101295.53;;;2.40;100.00
57668;BME280;43499;52.366;12.912;2023-03-04T05:58:32;101341.19;;;2.67;100.00
57668;BME280;43499;52.366;12.912;2023-03-04T05:59:44;101264.38;;;2.26;100.00
57668;BME280;43499;52.366;12.912;2023-03-04T06:01:01;101308.16;;;2.52;100.00
57668;BME280;43499;52.366;12.912;2023-03-04T06:02:06;101300.38;;;2.52;100.00
57668;BME280;43499;52.366;12.912;2023-03-04T06:03:13;101324.13;;;2.62;100.00
57668;BME280;43499;52.366;12.912;2023-03-04T06:04:27;101326.91;;;2.64;100.00
57668;BME280;43499;52.366;12.912;2023-03-04T06:05:40;101359.56;;;2.83;100.00
57668;BME280;43499;52.366;12.912;2023-03-04T06:06:57;101337.13;;;2.69;100.00
57668;BME280;43499;52.366;12.912;2023-03-04T06:08:13;101273.84;;;2.33;100.00
57668;BME280;43499;52.366;12.912;2023-03-04T06:10:01;101353.44;;;2.83;100.00
57668;BME280;43499;52.366;12.912;2023-03-04T06:11:13;101305.22;;;2.56;100.00
57668;BME280;43499;52.366;12.912;2023-03-04T06:12:35;101338.59;;;2.74;100.00
57668;BME280;43499;52.366;12.912;2023-03-04T06:17:55;101353.63;;;2.84;100.00
57668;BME280;43499;52.366;12.912;2023-03-04T06:28:24;101356.78;;;2.89;100.00
57668;BME280;43499;52.366;12.912;2023-03-04T06:30:22;101348.44;;;2.84;100.00
57668;BME280;43499;52.366;12.912;2023-03-04T06:38:52;101265.34;;;2.48;100.00
57668;BME280;43499;52.366;12.912;2023-03-04T06:40:56;101280.94;;;2.62;100.00
57668;BME280;43499;52.366;12.912;2023-03-04T06:44:58;101373.13;;;3.24;100.00
57668;BME280;43499;52.366;12.912;2023-03-04T06:47:32;101354.72;;;3.22;100.00
57668;BME280;43499;52.366;12.912;2023-03-04T06:52:17;101360.28;;;3.54;100.00
57668;BME280;43499;52.366;12.912;2023-03-04T06:54:33;101309.66;;;3.22;100.00
57668;BME280;43499;52.366;12.912;2023-03-04T06:57:18;101274.22;;;3.01;100.00
57668;BME280;43499;52.366;12.912;2023-03-04T07:00:10;101277.56;;;3.00;100.00
57668;BME280;43499;52.366;12.912;2023-03-04T07:04:16;101270.72;;;3.00;100.00
57668;BME280;43499;52.366;12.912;2023-03-04T07:05:51;101303.72;;;3.23;100.00
57668;BME280;43499;52.366;12.912;2023-03-04T07:12:23;101361.72;;;3.60;100.00
57668;BME280;43499;52.366;12.912;2023-03-04T07:16:52;101369.19;;;3.57;100.00
57668;BME280;43499;52.366;12.912;2023-03-04T07:21:32;101318.53;;;3.31;100.00
57668;BME280;43499;52.366;12.912;2023-03-04T07:23:54;101282.34;;;3.26;100.00
57668;BME280;43499;52.366;12.912;2023-03-04T07:28:09;101317.94;;;3.48;100.00
57668;BME280;43499;52.366;12.912;2023-03-04T07:35:45;101370.06;;;3.72;100.00
57668;BME280;43499;52.366;12.912;2023-03-04T07:38:11;101368.78;;;3.68;100.00
57668;BME280;43499;52.366;12.912;2023-03-04T07:44:45;101299.25;;;3.36;100.00
57668;BME280;43499;52.366;12.912;2023-03-04T07:47:20;101368.56;;;3.81;100.00
57668;BME280;43499;52.366;12.912;2023-03-04T07:48:54;101303.50;;;3.43;100.00
57668;BME280;43499;52.366;12.912;2023-03-04T07:50:40;101300.88;;;3.36;100.00
57668;BME280;43499;52.366;12.912;2023-03-04T07:56:24;101357.78;;;3.78;100.00
57668;BME280;43499;52.366;12.912;2023-03-04T08:00:43;101372.78;;;4.02;100.00
57668;BME280;43499;52.366;12.912;2023-03-04T08:03:08;101344.94;;;3.86;100.00
57668;BME280;43499;52.366;12.912;2023-03-04T08:05:07;101308.16;;;3.83;100.00
57668;BME280;43499;52.366;12.912;2023-03-04T08:06:46;101360.44;;;4.15;100.00
57668;BME280;43499;52.366;12.912;2023-03-04T08:09:23;101377.34;;;4.19;100.00
57668;BME280;43499;52.366;12.912;2023-03-04T08:11:26;101296.06;;;3.91;100.00
57668;BME280;43499;52.366;12.912;2023-03-04T08:13:33;101276.59;;;3.80;100.00
57668;BME280;43499;52.366;12.912;2023-03-04T08:17:47;101284.28;;;4.09;100.00
57668;BME280;43499;52.366;12.912;2023-03-04T08:22:41;101306.53;;;4.14;100.00
57668;BME280;43499;52.366;12.912;2023-03-04T08:24:31;101336.94;;;4.30;100.00
57668;BME280;43499;52.366;12.912;2023-03-04T08:28:14;101260.84;;;3.79;100.00
57668;BME280;43499;52.366;12.912;2023-03-04T08:29:38;101320.16;;;4.05;100.00
57668;BME280;43499;52.366;12.912;2023-03-04T08:33:21;101324.63;;;4.06;100.00
57668;BME280;43499;52.366;12.912;2023-03-04T08:34:43;101305.31;;;4.04;100.00
57668;BME280;43499;52.366;12.912;2023-03-04T08:36:24;101352.94;;;4.33;100.00
57668;BME280;43499;52.366;12.912;2023-03-04T08:41:59;101294.69;;;4.09;100.00
57668;BME280;43499;52.366;12.912;2023-03-04T08:45:35;101299.09;;;4.17;100.00
57668;BME280;43499;52.366;12.912;2023-03-04T08:46:44;101352.78;;;4.55;100.00
57668;BME280;43499;52.366;12.912;2023-03-04T08:47:46;101332.19;;;4.49;100.00
57668;BME280;43499;52.366;12.912;2023-03-04T08:48:54;101298.41;;;4.42;100.00
57668;BME280;43499;52.366;12.912;2023-03-04T08:49:58;101328.56;;;4.63;100.00
57668;BME280;43499;52.366;12.912;2023-03-04T08:51:16;101252.09;;;4.39;100.00
57668;BME280;43499;52.366;12.912;2023-03-04T08:52:21;101286.47;;;4.90;100.00
57668;BME280;43499;52.366;12.912;2023-03-04T08:53:51;101288.88;;;5.12;100.00
57668;BME280;43499;52.366;12.912;2023-03-04T08:55:24;101278.47;;;5.12;100.00
57668;BME280;43499;52.366;12.912;2023-03-04T08:56:35;101305.34;;;5.27;100.00
57668;BME280;43499;52.366;12.912;2023-03-04T08:57:51;101242.16;;;4.98;100.00